sensor_id;sensor_type;location;lat;lon;timestamp;P1;durP1;ratioP1;P2;durP2;ratioP2
50104;SDS011;47690;39.202;-77.198;2023-05-07T00:01:05;1.40;;;1.30;;
50104;SDS011;47690;39.202;-77.198;2023-05-07T00:03:37;1.70;;;1.60;;
50104;SDS011;47690;39.202;-77.198;2023-05-07T00:06:14;1.48;;;1.30;;
50104;SDS011;47690;39.202;-77.198;2023-05-07T00:08:50;3.08;;;1.48;;
50104;SDS011;47690;39.202;-77.198;2023-05-07T00:11:21;1.40;;;1.30;;
50104;SDS011;47690;39.202;-77.198;2023-05-07T00:13:52;1.33;;;1.23;;
50104;SDS011;47690;39.202;-77.198;2023-05-07T00:16:22;1.13;;;1.13;;
50104;SDS011;47690;39.202;-77.198;2023-05-07T00:18:53;1.58;;;1.48;;
50104;SDS011;47690;39.202;-77.198;2023-05-07T00:21:24;1.17;;;1.17;;
50104;SDS011;47690;39.202;-77.198;2023-05-07T00:23:55;1.42;;;1.40;;
50104;SDS011;47690;39.202;-77.198;2023-05-07T00:26:27;1.30;;;1.25;;
50104;SDS011;47690;39.202;-77.198;2023-05-07T00:28:59;1.20;;;1.20;;
50104;SDS011;47690;39.202;-77.198;2023-05-07T00:31:33;1.40;;;1.25;;
50104;SDS011;47690;39.202;-77.198;2023-05-07T00:34:06;1.42;;;1.33;;
50104;SDS011;47690;39.202;-77.198;2023-05-07T00:36:38;1.30;;;1.30;;
50104;SDS011;47690;39.202;-77.198;2023-05-07T00:39:14;2.17;;;1.20;;
50104;SDS011;47690;39.202;-77.198;2023-05-07T00:41:46;2.78;;;1.40;;
50104;SDS011;47690;39.202;-77.198;2023-05-07T00:44:18;2.13;;;1.50;;
50104;SDS011;47690;39.202;-77.198;2023-05-07T00:46:49;1.40;;;1.30;;
50104;SDS011;47690;39.202;-77.198;2023-05-07T00:49:21;1.63;;;1.52;;
50104;SDS011;47690;39.202;-77.198;2023-05-07T00:51:56;1.70;;;1.60;;
50104;SDS011;47690;39.202;-77.198;2023-05-07T00:54:28;1.60;;;1.50;;
50104;SDS011;47690;39.202;-77.198;2023-05-07T00:57:02;1.88;;;1.58;;
50104;SDS011;47690;39.202;-77.198;2023-05-07T01:00:41;1.55;;;1.40;;
50104;SDS011;47690;39.202;-77.198;2023-05-07T01:03:16;1.52;;;1.42;;
50104;SDS011;47690;39.202;-77.198;2023-05-07T01:05:46;1.65;;;1.55;;
50104;SDS011;47690;39.202;-77.198;2023-05-07T01:08:19;1.67;;;1.58;;
50104;SDS011;47690;39.202;-77.198;2023-05-07T01:10:51;1.60;;;1.50;;
50104;SDS011;47690;39.202;-77.198;2023-05-07T01:13:25;1.90;;;1.70;;
50104;SDS011;47690;39.202;-77.198;2023-05-07T01:15:58;1.70;;;1.60;;
50104;SDS011;47690;39.202;-77.198;2023-05-07T01:18:31;1.67;;;1.58;;
50104;SDS011;47690;39.202;-77.198;2023-05-07T01:21:02;2.45;;;1.75;;
50104;SDS011;47690;39.202;-77.198;2023-05-07T01:23:36;2.35;;;1.73;;
50104;SDS011;47690;39.202;-77.198;2023-05-07T01:26:11;1.85;;;1.75;;
50104;SDS011;47690;39.202;-77.198;2023-05-07T01:28:46;1.95;;;1.83;;
50104;SDS011;47690;39.202;-77.198;2023-05-07T01:31:17;2.03;;;1.90;;
50104;SDS011;47690;39.202;-77.198;2023-05-07T01:33:49;2.08;;;1.88;;
50104;SDS011;47690;39.202;-77.198;2023-05-07T01:36:24;2.20;;;2.00;;
50104;SDS011;47690;39.202;-77.198;2023-05-07T01:39:02;2.75;;;2.00;;
50104;SDS011;47690;39.202;-77.198;2023-05-07T01:41:35;2.25;;;1.70;;
50104;SDS011;47690;39.202;-77.198;2023-05-07T01:44:16;1.73;;;1.63;;
50104;SDS011;47690;39.202;-77.198;2023-05-07T01:46:54;5.50;;;5.00;;
50104;SDS011;47690;39.202;-77.198;2023-05-07T01:49:34;6.53;;;6.03;;
50104;SDS011;47690;39.202;-77.198;2023-05-07T01:52:12;4.60;;;4.20;;
50104;SDS011;47690;39.202;-77.198;2023-05-07T01:54:47;3.20;;;2.90;;
50104;SDS011;47690;39.202;-77.198;2023-05-07T01:57:17;2.50;;;2.30;;
50104;SDS011;47690;39.202;-77.198;2023-05-07T01:59:49;2.00;;;1.90;;
50104;SDS011;47690;39.202;-77.198;2023-05-07T02:02:23;2.00;;;1.90;;
50104;SDS011;47690;39.202;-77.198;2023-05-07T02:07:30;1.70;;;1.60;;
50104;SDS011;47690;39.202;-77.198;2023-05-07T02:10:01;2.60;;;1.80;;
50104;SDS011;47690;39.202;-77.198;2023-05-07T02:12:33;1.70;;;1.60;;
50104;SDS011;47690;39.202;-77.198;2023-05-07T02:15:03;2.00;;;1.80;;
50104;SDS011;47690;39.202;-77.198;2023-05-07T02:17:35;1.90;;;1.75;;
50104;SDS011;47690;39.202;-77.198;2023-05-07T02:20:32;3.10;;;1.70;;
50104;SDS011;47690;39.202;-77.198;2023-05-07T02:23:06;3.13;;;1.83;;
50104;SDS011;47690;39.202;-77.198;2023-05-07T02:25:44;2.00;;;1.80;;
50104;SDS011;47690;39.202;-77.198;2023-05-07T02:28:21;2.10;;;1.90;;
50104;SDS011;47690;39.202;-77.198;2023-05-07T02:30:57;2.13;;;1.92;;
50104;SDS011;47690;39.202;-77.198;2023-05-07T02:33:32;1.98;;;1.80;;
50104;SDS011;47690;39.202;-77.198;2023-05-07T02:36:08;1.70;;;1.60;;
50104;SDS011;47690;39.202;-77.198;2023-05-07T02:39:00;2.17;;;1.80;;
50104;SDS011;47690;39.202;-77.198;2023-05-07T02:41:29;2.22;;;1.80;;
50104;SDS011;47690;39.202;-77.198;2023-05-07T02:44:01;2.22;;;2.00;;
50104;SDS011;47690;39.202;-77.198;2023-05-07T02:46:47;2.17;;;1.98;;
50104;SDS011;47690;39.202;-77.198;2023-05-07T02:49:32;1.85;;;1.75;;
50104;SDS011;47690;39.202;-77.198;2023-05-07T02:52:03;2.38;;;2.00;;
50104;SDS011;47690;39.202;-77.198;2023-05-07T02:54:38;2.25;;;1.70;;
50104;SDS011;47690;39.202;-77.198;2023-05-07T02:57:12;2.08;;;1.88;;
50104;SDS011;47690;39.202;-77.198;2023-05-07T02:59:44;2.30;;;2.05;;
50104;SDS011;47690;39.202;-77.198;2023-05-07T03:02:21;2.47;;;1.80;;
50104;SDS011;47690;39.202;-77.198;2023-05-07T03:04:52;1.85;;;1.75;;
50104;SDS011;47690;39.202;-77.198;2023-05-07T03:07:24;1.77;;;1.67;;
50104;SDS011;47690;39.202;-77.198;2023-05-07T03:09:59;2.80;;;2.00;;
50104;SDS011;47690;39.202;-77.198;2023-05-07T03:12:31;2.10;;;1.90;;
50104;SDS011;47690;39.202;-77.198;2023-05-07T03:15:04;2.10;;;1.90;;
50104;SDS011;47690;39.202;-77.198;2023-05-07T03:17:36;2.63;;;2.10;;
50104;SDS011;47690;39.202;-77.198;2023-05-07T03:20:12;1.83;;;1.73;;
50104;SDS011;47690;39.202;-77.198;2023-05-07T03:22:47;2.85;;;2.00;;
50104;SDS011;47690;39.202;-77.198;2023-05-07T03:25:20;2.20;;;2.00;;
50104;SDS011;47690;39.202;-77.198;2023-05-07T03:27:56;2.05;;;1.85;;
50104;SDS011;47690;39.202;-77.198;2023-05-07T03:30:36;2.20;;;2.00;;
50104;SDS011;47690;39.202;-77.198;2023-05-07T03:33:52;2.17;;;1.98;;
50104;SDS011;47690;39.202;-77.198;2023-05-07T03:36:25;2.33;;;2.10;;
50104;SDS011;47690;39.202;-77.198;2023-05-07T03:38:58;2.33;;;2.00;;
50104;SDS011;47690;39.202;-77.198;2023-05-07T03:41:38;2.45;;;2.25;;
50104;SDS011;47690;39.202;-77.198;2023-05-07T03:44:12;2.40;;;2.20;;
50104;SDS011;47690;39.202;-77.198;2023-05-07T03:46:46;2.58;;;2.30;;
50104;SDS011;47690;39.202;-77.198;2023-05-07T03:49:20;2.30;;;2.10;;
50104;SDS011;47690;39.202;-77.198;2023-05-07T03:51:52;3.67;;;2.20;;
50104;SDS011;47690;39.202;-77.198;2023-05-07T03:54:24;2.22;;;2.03;;
50104;SDS011;47690;39.202;-77.198;2023-05-07T03:56:55;2.80;;;2.25;;
50104;SDS011;47690;39.202;-77.198;2023-05-07T03:59:26;2.75;;;2.38;;
50104;SDS011;47690;39.202;-77.198;2023-05-07T04:01:58;2.88;;;2.58;;
50104;SDS011;47690;39.202;-77.198;2023-05-07T04:04:34;2.75;;;2.42;;
50104;SDS011;47690;39.202;-77.198;2023-05-07T04:07:08;2.85;;;2.40;;
50104;SDS011;47690;39.202;-77.198;2023-05-07T04:10:05;3.70;;;2.70;;
50104;SDS011;47690;39.202;-77.198;2023-05-07T04:14:01;2.53;;;2.33;;
50104;SDS011;47690;39.202;-77.198;2023-05-07T04:16:50;3.15;;;2.28;;
50104;SDS011;47690;39.202;-77.198;2023-05-07T04:19:22;2.47;;;2.28;;
50104;SDS011;47690;39.202;-77.198;2023-05-07T04:21:54;2.75;;;2.28;;
50104;SDS011;47690;39.202;-77.198;2023-05-07T04:24:27;2.53;;;2.33;;
50104;SDS011;47690;39.202;-77.198;2023-05-07T04:27:05;2.35;;;2.15;;
50104;SDS011;47690;39.202;-77.198;2023-05-07T04:29:36;2.45;;;2.25;;
50104;SDS011;47690;39.202;-77.198;2023-05-07T04:32:15;2.88;;;2.20;;
50104;SDS011;47690;39.202;-77.198;2023-05-07T04:35:53;2.13;;;1.90;;
50104;SDS011;47690;39.202;-77.198;2023-05-07T04:38:30;3.00;;;2.30;;
50104;SDS011;47690;39.202;-77.198;2023-05-07T04:41:42;2.50;;;2.30;;
50104;SDS011;47690;39.202;-77.198;2023-05-07T04:44:15;2.83;;;2.53;;
50104;SDS011;47690;39.202;-77.198;2023-05-07T04:46:47;2.80;;;2.50;;
50104;SDS011;47690;39.202;-77.198;2023-05-07T04:49:18;2.42;;;2.22;;
50104;SDS011;47690;39.202;-77.198;2023-05-07T04:51:49;2.50;;;2.30;;
50104;SDS011;47690;39.202;-77.198;2023-05-07T04:54:21;2.60;;;2.40;;
50104;SDS011;47690;39.202;-77.198;2023-05-07T04:56:52;2.28;;;2.05;;
50104;SDS011;47690;39.202;-77.198;2023-05-07T04:59:24;2.85;;;2.45;;
50104;SDS011;47690;39.202;-77.198;2023-05-07T05:01:53;3.20;;;2.38;;
50104;SDS011;47690;39.202;-77.198;2023-05-07T05:04:25;2.80;;;2.50;;
50104;SDS011;47690;39.202;-77.198;2023-05-07T05:06:54;2.70;;;2.40;;
50104;SDS011;47690;39.202;-77.198;2023-05-07T05:09:26;2.85;;;2.55;;
50104;SDS011;47690;39.202;-77.198;2023-05-07T05:11:55;3.30;;;2.60;;
50104;SDS011;47690;39.202;-77.198;2023-05-07T05:14:25;3.13;;;2.50;;
50104;SDS011;47690;39.202;-77.198;2023-05-07T05:16:55;3.22;;;2.60;;
50104;SDS011;47690;39.202;-77.198;2023-05-07T05:19:26;3.20;;;2.63;;
50104;SDS011;47690;39.202;-77.198;2023-05-07T05:21:55;2.55;;;2.35;;
50104;SDS011;47690;39.202;-77.198;2023-05-07T05:24:26;3.00;;;2.65;;
50104;SDS011;47690;39.202;-77.198;2023-05-07T05:26:57;3.13;;;2.42;;
50104;SDS011;47690;39.202;-77.198;2023-05-07T05:29:30;3.50;;;2.70;;
50104;SDS011;47690;39.202;-77.198;2023-05-07T05:32:01;3.05;;;2.60;;
50104;SDS011;47690;39.202;-77.198;2023-05-07T05:34:32;3.67;;;2.80;;
50104;SDS011;47690;39.202;-77.198;2023-05-07T05:37:03;2.53;;;2.33;;
50104;SDS011;47690;39.202;-77.198;2023-05-07T05:39:34;2.38;;;2.17;;
50104;SDS011;47690;39.202;-77.198;2023-05-07T05:42:05;2.60;;;2.40;;
50104;SDS011;47690;39.202;-77.198;2023-05-07T05:44:36;2.50;;;2.30;;
50104;SDS011;47690;39.202;-77.198;2023-05-07T05:47:06;3.33;;;2.47;;
50104;SDS011;47690;39.202;-77.198;2023-05-07T05:49:36;3.50;;;2.60;;
50104;SDS011;47690;39.202;-77.198;2023-05-07T05:52:08;2.78;;;2.58;;
50104;SDS011;47690;39.202;-77.198;2023-05-07T05:54:41;3.10;;;2.60;;
50104;SDS011;47690;39.202;-77.198;2023-05-07T05:57:12;2.65;;;2.45;;
50104;SDS011;47690;39.202;-77.198;2023-05-07T05:59:42;2.80;;;2.60;;
50104;SDS011;47690;39.202;-77.198;2023-05-07T06:02:14;2.85;;;2.60;;
50104;SDS011;47690;39.202;-77.198;2023-05-07T06:04:46;3.00;;;2.50;;
50104;SDS011;47690;39.202;-77.198;2023-05-07T06:07:19;2.70;;;2.50;;
50104;SDS011;47690;39.202;-77.198;2023-05-07T06:09:50;2.90;;;2.60;;
50104;SDS011;47690;39.202;-77.198;2023-05-07T06:12:21;2.92;;;2.63;;
50104;SDS011;47690;39.202;-77.198;2023-05-07T06:14:51;2.97;;;2.67;;
50104;SDS011;47690;39.202;-77.198;2023-05-07T06:17:22;2.75;;;2.47;;
50104;SDS011;47690;39.202;-77.198;2023-05-07T06:19:52;2.83;;;2.53;;
50104;SDS011;47690;39.202;-77.198;2023-05-07T06:22:22;4.57;;;2.92;;
50104;SDS011;47690;39.202;-77.198;2023-05-07T06:24:52;3.20;;;2.90;;
50104;SDS011;47690;39.202;-77.198;2023-05-07T06:27:23;3.70;;;2.70;;
50104;SDS011;47690;39.202;-77.198;2023-05-07T06:29:54;2.85;;;2.53;;
50104;SDS011;47690;39.202;-77.198;2023-05-07T06:32:25;3.13;;;2.42;;
50104;SDS011;47690;39.202;-77.198;2023-05-07T06:34:55;3.28;;;2.70;;
50104;SDS011;47690;39.202;-77.198;2023-05-07T06:37:25;3.60;;;2.63;;
50104;SDS011;47690;39.202;-77.198;2023-05-07T06:40:00;3.33;;;2.58;;
50104;SDS011;47690;39.202;-77.198;2023-05-07T06:42:31;2.92;;;2.63;;
50104;SDS011;47690;39.202;-77.198;2023-05-07T06:45:19;2.60;;;2.40;;
50104;SDS011;47690;39.202;-77.198;2023-05-07T06:47:49;2.90;;;2.60;;
50104;SDS011;47690;39.202;-77.198;2023-05-07T06:50:20;2.90;;;2.60;;
50104;SDS011;47690;39.202;-77.198;2023-05-07T06:52:53;2.97;;;2.67;;
50104;SDS011;47690;39.202;-77.198;2023-05-07T06:55:24;2.40;;;2.20;;
50104;SDS011;47690;39.202;-77.198;2023-05-07T06:57:55;2.90;;;2.53;;
50104;SDS011;47690;39.202;-77.198;2023-05-07T07:00:29;2.58;;;2.38;;
50104;SDS011;47690;39.202;-77.198;2023-05-07T07:02:59;2.72;;;2.53;;
50104;SDS011;47690;39.202;-77.198;2023-05-07T07:05:30;3.00;;;2.70;;
50104;SDS011;47690;39.202;-77.198;2023-05-07T07:08:02;3.45;;;2.50;;
50104;SDS011;47690;39.202;-77.198;2023-05-07T07:10:31;2.90;;;2.60;;
50104;SDS011;47690;39.202;-77.198;2023-05-07T07:13:03;3.20;;;2.53;;
50104;SDS011;47690;39.202;-77.198;2023-05-07T07:15:33;2.90;;;2.60;;
50104;SDS011;47690;39.202;-77.198;2023-05-07T07:18:04;2.80;;;2.53;;
50104;SDS011;47690;39.202;-77.198;2023-05-07T07:20:33;2.63;;;2.42;;
50104;SDS011;47690;39.202;-77.198;2023-05-07T07:23:05;3.28;;;2.70;;
50104;SDS011;47690;39.202;-77.198;2023-05-07T07:25:35;2.83;;;2.40;;
50104;SDS011;47690;39.202;-77.198;2023-05-07T07:28:05;2.92;;;2.50;;
50104;SDS011;47690;39.202;-77.198;2023-05-07T07:30:38;3.58;;;2.75;;
50104;SDS011;47690;39.202;-77.198;2023-05-07T07:33:11;3.05;;;2.65;;
50104;SDS011;47690;39.202;-77.198;2023-05-07T07:35:43;3.03;;;2.70;;
50104;SDS011;47690;39.202;-77.198;2023-05-07T07:38:15;3.00;;;2.70;;
50104;SDS011;47690;39.202;-77.198;2023-05-07T07:40:47;2.95;;;2.60;;
50104;SDS011;47690;39.202;-77.198;2023-05-07T07:43:18;3.10;;;2.72;;
50104;SDS011;47690;39.202;-77.198;2023-05-07T07:45:49;3.13;;;2.60;;
50104;SDS011;47690;39.202;-77.198;2023-05-07T07:48:20;2.80;;;2.60;;
50104;SDS011;47690;39.202;-77.198;2023-05-07T07:50:50;2.95;;;2.35;;
50104;SDS011;47690;39.202;-77.198;2023-05-07T07:53:19;3.45;;;2.65;;
50104;SDS011;47690;39.202;-77.198;2023-05-07T07:55:50;2.85;;;2.58;;
50104;SDS011;47690;39.202;-77.198;2023-05-07T07:58:29;2.97;;;2.60;;
50104;SDS011;47690;39.202;-77.198;2023-05-07T08:00:59;3.35;;;2.80;;
50104;SDS011;47690;39.202;-77.198;2023-05-07T08:03:29;3.33;;;2.70;;
50104;SDS011;47690;39.202;-77.198;2023-05-07T08:06:01;2.70;;;2.50;;
50104;SDS011;47690;39.202;-77.198;2023-05-07T08:08:33;2.88;;;2.45;;
50104;SDS011;47690;39.202;-77.198;2023-05-07T08:11:04;4.07;;;2.50;;
50104;SDS011;47690;39.202;-77.198;2023-05-07T08:13:36;4.32;;;2.72;;
50104;SDS011;47690;39.202;-77.198;2023-05-07T08:16:08;2.72;;;2.42;;
50104;SDS011;47690;39.202;-77.198;2023-05-07T08:18:45;3.28;;;2.60;;
50104;SDS011;47690;39.202;-77.198;2023-05-07T08:21:16;2.90;;;2.58;;
50104;SDS011;47690;39.202;-77.198;2023-05-07T08:23:46;3.45;;;2.95;;
50104;SDS011;47690;39.202;-77.198;2023-05-07T08:26:16;3.03;;;2.67;;
50104;SDS011;47690;39.202;-77.198;2023-05-07T08:28:48;5.30;;;2.50;;
50104;SDS011;47690;39.202;-77.198;2023-05-07T08:31:18;2.95;;;2.65;;
50104;SDS011;47690;39.202;-77.198;2023-05-07T08:33:49;2.60;;;2.40;;
50104;SDS011;47690;39.202;-77.198;2023-05-07T08:36:19;2.70;;;2.40;;
50104;SDS011;47690;39.202;-77.198;2023-05-07T08:38:49;2.92;;;2.50;;
50104;SDS011;47690;39.202;-77.198;2023-05-07T08:41:21;3.13;;;2.80;;
50104;SDS011;47690;39.202;-77.198;2023-05-07T08:43:51;3.15;;;2.38;;
50104;SDS011;47690;39.202;-77.198;2023-05-07T08:46:22;2.50;;;2.30;;
50104;SDS011;47690;39.202;-77.198;2023-05-07T08:48:55;2.65;;;2.33;;
50104;SDS011;47690;39.202;-77.198;2023-05-07T08:51:26;2.83;;;2.50;;
50104;SDS011;47690;39.202;-77.198;2023-05-07T08:53:56;2.80;;;2.50;;
50104;SDS011;47690;39.202;-77.198;2023-05-07T08:56:33;3.03;;;2.50;;
50104;SDS011;47690;39.202;-77.198;2023-05-07T08:59:03;3.00;;;2.70;;
50104;SDS011;47690;39.202;-77.198;2023-05-07T09:01:35;2.65;;;2.45;;
50104;SDS011;47690;39.202;-77.198;2023-05-07T09:04:06;2.70;;;2.40;;
50104;SDS011;47690;39.202;-77.198;2023-05-07T09:06:41;3.33;;;2.55;;
50104;SDS011;47690;39.202;-77.198;2023-05-07T09:09:15;2.80;;;2.50;;
50104;SDS011;47690;39.202;-77.198;2023-05-07T09:11:56;2.55;;;2.35;;
50104;SDS011;47690;39.202;-77.198;2023-05-07T09:14:30;3.22;;;2.40;;
50104;SDS011;47690;39.202;-77.198;2023-05-07T09:17:02;2.47;;;2.28;;
50104;SDS011;47690;39.202;-77.198;2023-05-07T09:19:32;4.10;;;2.67;;
50104;SDS011;47690;39.202;-77.198;2023-05-07T09:22:05;2.90;;;2.63;;
50104;SDS011;47690;39.202;-77.198;2023-05-07T09:24:58;3.65;;;2.40;;
50104;SDS011;47690;39.202;-77.198;2023-05-07T09:27:30;2.92;;;2.38;;
50104;SDS011;47690;39.202;-77.198;2023-05-07T09:30:04;3.00;;;2.67;;
50104;SDS011;47690;39.202;-77.198;2023-05-07T09:32:37;3.00;;;2.50;;
50104;SDS011;47690;39.202;-77.198;2023-05-07T09:35:15;3.00;;;2.58;;
50104;SDS011;47690;39.202;-77.198;2023-05-07T09:37:58;3.20;;;2.78;;
50104;SDS011;47690;39.202;-77.198;2023-05-07T09:40:35;3.10;;;2.80;;
50104;SDS011;47690;39.202;-77.198;2023-05-07T09:43:12;3.15;;;2.65;;
50104;SDS011;47690;39.202;-77.198;2023-05-07T09:45:50;3.15;;;2.83;;
50104;SDS011;47690;39.202;-77.198;2023-05-07T09:48:25;3.35;;;2.65;;
50104;SDS011;47690;39.202;-77.198;2023-05-07T09:50:56;2.80;;;2.50;;
50104;SDS011;47690;39.202;-77.198;2023-05-07T09:53:34;3.17;;;2.75;;
50104;SDS011;47690;39.202;-77.198;2023-05-07T09:56:05;2.95;;;2.50;;
50104;SDS011;47690;39.202;-77.198;2023-05-07T09:58:37;3.00;;;2.70;;
50104;SDS011;47690;39.202;-77.198;2023-05-07T10:01:12;2.65;;;2.45;;
50104;SDS011;47690;39.202;-77.198;2023-05-07T10:03:42;2.78;;;2.53;;
50104;SDS011;47690;39.202;-77.198;2023-05-07T10:06:15;3.00;;;2.70;;
50104;SDS011;47690;39.202;-77.198;2023-05-07T10:08:46;3.30;;;2.80;;
50104;SDS011;47690;39.202;-77.198;2023-05-07T10:11:17;4.35;;;2.53;;
50104;SDS011;47690;39.202;-77.198;2023-05-07T10:13:48;2.72;;;2.50;;
50104;SDS011;47690;39.202;-77.198;2023-05-07T10:16:18;3.63;;;3.17;;
50104;SDS011;47690;39.202;-77.198;2023-05-07T10:18:50;2.75;;;2.55;;
50104;SDS011;47690;39.202;-77.198;2023-05-07T10:21:24;3.38;;;2.63;;
50104;SDS011;47690;39.202;-77.198;2023-05-07T10:24:03;3.38;;;2.65;;
50104;SDS011;47690;39.202;-77.198;2023-05-07T10:26:37;2.63;;;2.42;;
50104;SDS011;47690;39.202;-77.198;2023-05-07T10:29:15;3.70;;;2.70;;
50104;SDS011;47690;39.202;-77.198;2023-05-07T10:32:13;3.15;;;2.80;;
50104;SDS011;47690;39.202;-77.198;2023-05-07T10:35:03;3.22;;;2.50;;
50104;SDS011;47690;39.202;-77.198;2023-05-07T10:37:38;3.03;;;2.72;;
50104;SDS011;47690;39.202;-77.198;2023-05-07T10:40:10;3.83;;;2.78;;
50104;SDS011;47690;39.202;-77.198;2023-05-07T10:42:55;3.00;;;2.60;;
50104;SDS011;47690;39.202;-77.198;2023-05-07T10:45:28;2.85;;;2.55;;
50104;SDS011;47690;39.202;-77.198;2023-05-07T10:51:20;3.30;;;2.63;;
50104;SDS011;47690;39.202;-77.198;2023-05-07T10:56:55;2.50;;;2.20;;
50104;SDS011;47690;39.202;-77.198;2023-05-07T10:59:31;2.90;;;2.60;;
50104;SDS011;47690;39.202;-77.198;2023-05-07T11:05:38;2.92;;;2.28;;
50104;SDS011;47690;39.202;-77.198;2023-05-07T11:08:08;2.60;;;2.35;;
50104;SDS011;47690;39.202;-77.198;2023-05-07T11:10:55;2.70;;;2.30;;
50104;SDS011;47690;39.202;-77.198;2023-05-07T11:13:46;3.00;;;2.55;;
50104;SDS011;47690;39.202;-77.198;2023-05-07T11:16:46;2.80;;;2.55;;
50104;SDS011;47690;39.202;-77.198;2023-05-07T11:25:20;3.05;;;2.30;;
50104;SDS011;47690;39.202;-77.198;2023-05-07T11:28:04;3.00;;;2.45;;
50104;SDS011;47690;39.202;-77.198;2023-05-07T11:30:49;2.67;;;2.42;;
50104;SDS011;47690;39.202;-77.198;2023-05-07T11:33:21;2.97;;;2.67;;
50104;SDS011;47690;39.202;-77.198;2023-05-07T11:35:57;3.22;;;2.65;;
50104;SDS011;47690;39.202;-77.198;2023-05-07T11:38:37;2.83;;;2.42;;
50104;SDS011;47690;39.202;-77.198;2023-05-07T11:41:07;2.58;;;2.38;;
50104;SDS011;47690;39.202;-77.198;2023-05-07T11:43:37;3.83;;;2.55;;
50104;SDS011;47690;39.202;-77.198;2023-05-07T11:46:24;2.75;;;2.55;;
50104;SDS011;47690;39.202;-77.198;2023-05-07T11:48:54;3.10;;;2.50;;
50104;SDS011;47690;39.202;-77.198;2023-05-07T11:51:24;4.82;;;2.70;;
50104;SDS011;47690;39.202;-77.198;2023-05-07T11:53:58;3.27;;;2.77;;
50104;SDS011;47690;39.202;-77.198;2023-05-07T11:56:28;3.28;;;2.65;;
50104;SDS011;47690;39.202;-77.198;2023-05-07T11:58:57;2.90;;;2.63;;
50104;SDS011;47690;39.202;-77.198;2023-05-07T12:01:28;3.30;;;2.72;;
50104;SDS011;47690;39.202;-77.198;2023-05-07T12:03:58;3.20;;;2.80;;
50104;SDS011;47690;39.202;-77.198;2023-05-07T12:06:29;3.13;;;2.70;;
50104;SDS011;47690;39.202;-77.198;2023-05-07T12:09:00;3.33;;;2.88;;
50104;SDS011;47690;39.202;-77.198;2023-05-07T12:11:29;3.03;;;2.53;;
50104;SDS011;47690;39.202;-77.198;2023-05-07T12:13:59;2.65;;;2.45;;
50104;SDS011;47690;39.202;-77.198;2023-05-07T12:16:29;3.63;;;2.75;;
50104;SDS011;47690;39.202;-77.198;2023-05-07T12:18:59;2.90;;;2.53;;
50104;SDS011;47690;39.202;-77.198;2023-05-07T12:21:29;2.90;;;2.40;;
50104;SDS011;47690;39.202;-77.198;2023-05-07T12:24:00;2.70;;;2.47;;
50104;SDS011;47690;39.202;-77.198;2023-05-07T12:26:31;2.63;;;2.42;;
50104;SDS011;47690;39.202;-77.198;2023-05-07T12:29:06;2.97;;;2.63;;
50104;SDS011;47690;39.202;-77.198;2023-05-07T12:31:39;3.15;;;2.65;;
50104;SDS011;47690;39.202;-77.198;2023-05-07T12:34:11;3.00;;;2.60;;
50104;SDS011;47690;39.202;-77.198;2023-05-07T12:36:41;3.45;;;2.60;;
50104;SDS011;47690;39.202;-77.198;2023-05-07T12:39:12;2.70;;;2.50;;
50104;SDS011;47690;39.202;-77.198;2023-05-07T12:41:55;2.97;;;2.67;;
50104;SDS011;47690;39.202;-77.198;2023-05-07T12:47:03;2.47;;;2.22;;
50104;SDS011;47690;39.202;-77.198;2023-05-07T12:49:34;3.85;;;2.55;;
50104;SDS011;47690;39.202;-77.198;2023-05-07T12:52:06;2.70;;;2.50;;
50104;SDS011;47690;39.202;-77.198;2023-05-07T12:54:40;2.80;;;2.60;;
50104;SDS011;47690;39.202;-77.198;2023-05-07T12:57:10;2.85;;;2.53;;
50104;SDS011;47690;39.202;-77.198;2023-05-07T12:59:41;3.50;;;2.47;;
50104;SDS011;47690;39.202;-77.198;2023-05-07T13:02:13;2.58;;;2.38;;
50104;SDS011;47690;39.202;-77.198;2023-05-07T13:04:46;2.80;;;2.42;;
50104;SDS011;47690;39.202;-77.198;2023-05-07T13:07:18;2.50;;;2.30;;
50104;SDS011;47690;39.202;-77.198;2023-05-07T13:09:49;2.65;;;2.20;;
50104;SDS011;47690;39.202;-77.198;2023-05-07T13:12:18;2.80;;;2.47;;
50104;SDS011;47690;39.202;-77.198;2023-05-07T13:14:47;2.90;;;2.45;;
50104;SDS011;47690;39.202;-77.198;2023-05-07T13:17:18;3.20;;;2.22;;
50104;SDS011;47690;39.202;-77.198;2023-05-07T13:19:49;2.50;;;2.30;;
50104;SDS011;47690;39.202;-77.198;2023-05-07T13:22:19;2.60;;;2.40;;
50104;SDS011;47690;39.202;-77.198;2023-05-07T13:24:49;2.60;;;2.40;;
50104;SDS011;47690;39.202;-77.198;2023-05-07T13:27:18;2.45;;;2.25;;
50104;SDS011;47690;39.202;-77.198;2023-05-07T13:29:49;2.67;;;2.33;;
50104;SDS011;47690;39.202;-77.198;2023-05-07T13:32:18;2.50;;;2.13;;
50104;SDS011;47690;39.202;-77.198;2023-05-07T13:34:48;2.40;;;2.20;;
50104;SDS011;47690;39.202;-77.198;2023-05-07T13:37:18;3.20;;;2.10;;
50104;SDS011;47690;39.202;-77.198;2023-05-07T13:39:48;2.63;;;2.42;;
50104;SDS011;47690;39.202;-77.198;2023-05-07T13:42:17;2.30;;;2.10;;
50104;SDS011;47690;39.202;-77.198;2023-05-07T13:44:47;2.50;;;2.30;;
50104;SDS011;47690;39.202;-77.198;2023-05-07T13:47:17;2.30;;;2.10;;
50104;SDS011;47690;39.202;-77.198;2023-05-07T13:49:49;2.30;;;2.10;;
50104;SDS011;47690;39.202;-77.198;2023-05-07T13:52:19;3.58;;;2.17;;
50104;SDS011;47690;39.202;-77.198;2023-05-07T13:54:49;2.45;;;2.25;;
50104;SDS011;47690;39.202;-77.198;2023-05-07T13:57:21;2.45;;;2.25;;
50104;SDS011;47690;39.202;-77.198;2023-05-07T13:59:51;2.80;;;2.10;;
50104;SDS011;47690;39.202;-77.198;2023-05-07T14:02:21;2.40;;;2.13;;
50104;SDS011;47690;39.202;-77.198;2023-05-07T14:04:52;3.22;;;2.13;;
50104;SDS011;47690;39.202;-77.198;2023-05-07T14:07:21;2.40;;;2.13;;
50104;SDS011;47690;39.202;-77.198;2023-05-07T14:09:52;2.63;;;2.20;;
50104;SDS011;47690;39.202;-77.198;2023-05-07T14:12:21;2.17;;;1.98;;
50104;SDS011;47690;39.202;-77.198;2023-05-07T14:14:51;2.28;;;2.08;;
50104;SDS011;47690;39.202;-77.198;2023-05-07T14:17:22;2.58;;;2.38;;
50104;SDS011;47690;39.202;-77.198;2023-05-07T14:19:53;2.33;;;2.10;;
50104;SDS011;47690;39.202;-77.198;2023-05-07T14:22:24;3.25;;;2.25;;
50104;SDS011;47690;39.202;-77.198;2023-05-07T14:24:54;3.00;;;2.00;;
50104;SDS011;47690;39.202;-77.198;2023-05-07T14:27:34;2.50;;;2.17;;
50104;SDS011;47690;39.202;-77.198;2023-05-07T14:30:04;2.38;;;2.10;;
50104;SDS011;47690;39.202;-77.198;2023-05-07T14:32:35;2.33;;;2.10;;
50104;SDS011;47690;39.202;-77.198;2023-05-07T14:35:04;2.50;;;2.20;;
50104;SDS011;47690;39.202;-77.198;2023-05-07T14:37:34;1.83;;;1.73;;
50104;SDS011;47690;39.202;-77.198;2023-05-07T14:40:04;3.05;;;2.28;;
50104;SDS011;47690;39.202;-77.198;2023-05-07T14:42:34;2.20;;;2.00;;
50104;SDS011;47690;39.202;-77.198;2023-05-07T14:45:04;2.25;;;2.05;;
50104;SDS011;47690;39.202;-77.198;2023-05-07T14:47:35;2.58;;;2.20;;
50104;SDS011;47690;39.202;-77.198;2023-05-07T14:50:05;2.20;;;2.00;;
50104;SDS011;47690;39.202;-77.198;2023-05-07T14:52:35;2.67;;;2.38;;
50104;SDS011;47690;39.202;-77.198;2023-05-07T14:55:06;2.40;;;2.20;;
50104;SDS011;47690;39.202;-77.198;2023-05-07T14:57:38;2.42;;;2.20;;
50104;SDS011;47690;39.202;-77.198;2023-05-07T15:00:09;2.40;;;2.20;;
50104;SDS011;47690;39.202;-77.198;2023-05-07T15:02:41;2.50;;;2.30;;
50104;SDS011;47690;39.202;-77.198;2023-05-07T15:05:14;2.30;;;2.10;;
50104;SDS011;47690;39.202;-77.198;2023-05-07T15:07:46;2.20;;;2.00;;
50104;SDS011;47690;39.202;-77.198;2023-05-07T15:10:15;2.13;;;1.92;;
50104;SDS011;47690;39.202;-77.198;2023-05-07T15:12:46;2.75;;;2.20;;
50104;SDS011;47690;39.202;-77.198;2023-05-07T15:15:16;2.40;;;2.15;;
50104;SDS011;47690;39.202;-77.198;2023-05-07T15:17:46;3.25;;;2.30;;
50104;SDS011;47690;39.202;-77.198;2023-05-07T15:20:16;2.20;;;2.00;;